Time;durP1;ratioP1;P1;durP2;ratioP2;P2;SDS_P1;SDS_P2;PMS_P1;PMS_P2;Temp;Humidity;BMP_temperature;BMP_pressure;BME280_temperature;BME280_humidity;BME280_pressure;Samples;Min_cycle;Max_cycle;Signal;HPM_P1;HPM_P2
2022/04/12 00:01:05;;;;;;;5.63;2.80;;;11.90;99.90;;;;;;5040141;28;20173;-78
2022/04/12 00:03:31;;;;;;;5.70;3.43;;;11.80;99.90;;;;;;5039192;28;20827;-79
2022/04/12 00:05:57;;;;;;;5.90;3.07;;;11.80;99.90;;;;;;5038834;28;20443;-79
2022/04/12 00:08:23;;;;;;;5.53;2.97;;;11.80;99.90;;;;;;5038837;28;20433;-79
2022/04/12 00:10:49;;;;;;;5.70;2.97;;;11.80;99.90;;;;;;5038532;28;20231;-79
2022/04/12 00:13:18;;;;;;;4.40;2.70;;;11.70;99.90;;;;;;5038761;28;20200;-78
2022/04/12 00:15:44;;;;;;;5.37;2.80;;;11.70;99.90;;;;;;5038028;28;20430;-79
2022/04/12 00:20:55;;;;;;;3.87;2.57;;;11.70;99.90;;;;;;5039128;28;20417;-79
2022/04/12 00:23:21;;;;;;;5.90;3.20;;;11.60;99.90;;;;;;5037756;28;20411;-79
2022/04/12 00:25:47;;;;;;;5.70;2.97;;;11.60;99.90;;;;;;5037010;28;20470;-79
2022/04/12 00:28:15;;;;;;;4.63;2.70;;;11.60;99.90;;;;;;5037354;28;20411;-78
2022/04/12 00:30:42;;;;;;;5.30;2.63;;;11.60;99.90;;;;;;5037426;28;20202;-79
2022/04/12 00:33:08;;;;;;;6.73;3.03;;;11.60;99.90;;;;;;5037782;28;20463;-79
2022/04/12 00:35:34;;;;;;;4.63;3.10;;;11.60;99.90;;;;;;5036827;28;20431;-78
2022/04/12 00:38:00;;;;;;;4.83;3.57;;;11.50;99.90;;;;;;5037315;28;20419;-80
2022/04/12 00:40:26;;;;;;;5.63;3.90;;;11.50;99.90;;;;;;5038123;28;20422;-79
2022/04/12 00:42:54;;;;;;;4.20;2.70;;;11.50;99.90;;;;;;5024139;28;20442;-78
2022/04/12 00:45:20;;;;;;;5.20;2.87;;;11.50;99.90;;;;;;5040693;28;20518;-79
2022/04/12 00:47:46;;;;;;;7.43;3.50;;;11.50;99.90;;;;;;5040150;28;20529;-79
2022/04/12 00:50:13;;;;;;;5.20;2.90;;;11.50;99.90;;;;;;5040316;28;20446;-79
2022/04/12 00:52:48;;;;;;;5.30;3.40;;;11.50;99.90;;;;;;5040515;28;20765;-78
2022/04/12 00:55:14;;;;;;;4.20;2.60;;;11.50;99.90;;;;;;5040538;28;20425;-79
2022/04/12 00:57:41;;;;;;;5.70;3.63;;;11.40;99.90;;;;;;5040425;28;20468;-78
2022/04/12 01:00:09;;;;;;;4.00;2.50;;;11.50;99.90;;;;;;5041050;28;20457;-79
2022/04/12 01:02:35;;;;;;;6.40;2.87;;;11.50;99.90;;;;;;5039880;28;20411;-79
2022/04/12 01:05:03;;;;;;;6.67;3.80;;;11.50;99.90;;;;;;5040725;28;20469;-78
2022/04/12 01:07:30;;;;;;;4.80;3.10;;;11.50;99.90;;;;;;5040039;28;20418;-79
2022/04/12 01:09:56;;;;;;;4.73;3.10;;;11.50;99.90;;;;;;5039897;28;20429;-79
2022/04/12 01:12:22;;;;;;;4.47;3.00;;;11.50;99.90;;;;;;5039208;28;20430;-79
2022/04/12 01:14:49;;;;;;;5.50;3.00;;;11.60;99.90;;;;;;5039628;28;20471;-78
2022/04/12 01:17:15;;;;;;;4.80;3.00;;;11.60;99.90;;;;;;5039849;28;20452;-79
2022/04/12 01:19:41;;;;;;;4.13;2.97;;;11.60;99.90;;;;;;5039464;28;20453;-79
2022/04/12 01:22:13;;;;;;;6.30;3.40;;;11.60;99.90;;;;;;5039681;28;20957;-79
2022/04/12 01:24:39;;;;;;;3.97;2.90;;;11.60;99.90;;;;;;5039598;28;20433;-79
2022/04/12 01:27:05;;;;;;;4.60;2.87;;;11.60;99.90;;;;;;5038983;28;20451;-78
2022/04/12 01:29:33;;;;;;;7.87;3.53;;;11.60;99.90;;;;;;5039524;28;20430;-77
2022/04/12 01:32:00;;;;;;;4.70;3.07;;;11.60;99.90;;;;;;5039190;28;20428;-78
2022/04/12 01:34:27;;;;;;;5.20;2.87;;;11.60;99.90;;;;;;5039058;28;20993;-78
2022/04/12 01:36:53;;;;;;;4.67;2.43;;;11.60;99.90;;;;;;5038707;28;20523;-79
2022/04/12 01:39:18;;;;;;;4.80;3.20;;;11.60;99.90;;;;;;5038738;28;20482;-80
2022/04/12 01:41:44;;;;;;;6.60;3.40;;;11.60;99.90;;;;;;5036131;28;20184;-78
2022/04/12 01:44:10;;;;;;;4.47;2.77;;;11.60;99.90;;;;;;5036477;28;20180;-79
2022/04/12 01:46:35;;;;;;;5.03;2.90;;;11.60;99.90;;;;;;5035861;28;20231;-79
2022/04/12 01:49:01;;;;;;;5.87;2.83;;;11.60;99.90;;;;;;5036309;28;20180;-78
2022/04/12 01:51:28;;;;;;;6.90;3.10;;;11.70;99.90;;;;;;5036404;28;20184;-78
2022/04/12 01:53:53;;;;;;;8.30;3.43;;;11.70;99.90;;;;;;5036310;28;20204;-79
2022/04/12 01:56:19;;;;;;;4.43;3.07;;;11.70;99.90;;;;;;5036341;28;20439;-78
2022/04/12 01:58:45;;;;;;;4.87;3.20;;;11.70;99.90;;;;;;5036888;28;20206;-80
2022/04/12 02:01:11;;;;;;;5.10;3.23;;;11.70;99.90;;;;;;5037428;28;20177;-78
2022/04/12 02:03:36;;;;;;;5.40;3.20;;;11.70;99.90;;;;;;5037385;28;20180;-79
2022/04/12 02:06:02;;;;;;;8.60;3.70;;;11.70;99.90;;;;;;5036983;28;20200;-78
2022/04/12 02:08:28;;;;;;;5.03;3.20;;;11.70;99.90;;;;;;5036920;28;20180;-78
2022/04/12 02:10:54;;;;;;;4.27;3.00;;;11.70;99.90;;;;;;5037445;28;20423;-78
2022/04/12 02:13:19;;;;;;;5.30;3.33;;;11.70;99.90;;;;;;5037373;28;20211;-79
2022/04/12 02:15:45;;;;;;;5.80;3.40;;;11.80;99.90;;;;;;5036899;28;20223;-78
2022/04/12 02:18:11;;;;;;;5.30;3.00;;;11.70;99.90;;;;;;5036743;28;20267;-79
2022/04/12 02:20:39;;;;;;;5.37;2.80;;;11.80;99.90;;;;;;5025342;23;20614;-83
2022/04/12 02:23:10;;;;;;;6.50;3.40;;;11.80;99.90;;;;;;4994643;28;20174;-83
2022/04/12 02:25:41;;;;;;;4.80;3.23;;;11.90;99.90;;;;;;4986507;28;20405;-82
2022/04/12 02:28:18;;;;;;;4.07;2.87;;;11.90;99.90;;;;;;4994182;28;20396;-83
2022/04/12 02:30:48;;;;;;;5.23;3.43;;;11.90;99.90;;;;;;4977518;28;20448;-82
2022/04/12 02:33:22;;;;;;;5.37;3.23;;;11.80;99.90;;;;;;4975043;28;20847;-82
2022/04/12 02:35:48;;;;;;;6.80;3.87;;;11.90;99.90;;;;;;4973875;28;20790;-83
2022/04/12 02:38:13;;;;;;;4.70;3.17;;;11.90;99.90;;;;;;4973102;28;20425;-83
2022/04/12 02:40:42;;;;;;;7.20;3.40;;;11.90;99.90;;;;;;4973547;28;20205;-82
2022/04/12 02:43:10;;;;;;;7.20;3.30;;;11.80;99.90;;;;;;4974780;28;20653;-83
2022/04/12 02:45:38;;;;;;;5.33;3.27;;;11.90;99.90;;;;;;4974648;28;20441;-82
2022/04/12 02:48:10;;;;;;;5.40;3.10;;;11.90;99.90;;;;;;4974213;28;20425;-82
2022/04/12 02:50:41;;;;;;;5.57;2.80;;;11.90;99.90;;;;;;4973304;28;20953;-82
2022/04/12 02:53:09;;;;;;;4.80;2.90;;;11.90;99.90;;;;;;4973521;28;20843;-82
2022/04/12 02:55:38;;;;;;;5.07;2.83;;;11.90;99.90;;;;;;4974413;28;20410;-82
2022/04/12 02:58:11;;;;;;;4.80;3.10;;;11.90;99.90;;;;;;4974015;28;20442;-83
2022/04/12 03:00:44;;;;;;;5.77;2.90;;;11.90;99.90;;;;;;4973154;28;20458;-82
2022/04/12 03:03:10;;;;;;;3.87;2.97;;;11.90;99.90;;;;;;4974133;28;20433;-82
2022/04/12 03:05:36;;;;;;;3.50;2.60;;;11.80;99.90;;;;;;4974450;28;20418;-83
2022/04/12 03:08:11;;;;;;;6.40;2.53;;;11.80;99.90;;;;;;4972878;28;20878;-83
2022/04/12 03:10:36;;;;;;;6.27;3.30;;;11.80;99.90;;;;;;4974412;28;20198;-82
2022/04/12 03:13:05;;;;;;;5.90;3.30;;;11.70;99.90;;;;;;4974268;28;20843;-82
2022/04/12 03:15:35;;;;;;;5.60;2.87;;;11.70;99.90;;;;;;4973915;28;20201;-82
2022/04/12 03:18:17;;;;;;;5.20;2.77;;;11.60;99.90;;;;;;4973897;28;20390;-82
2022/04/12 03:20:43;;;;;;;5.57;3.20;;;11.60;99.90;;;;;;4974171;28;20457;-82
2022/04/12 03:23:08;;;;;;;5.50;2.57;;;11.60;99.90;;;;;;4973036;28;20450;-82
2022/04/12 03:25:38;;;;;;;5.07;2.90;;;11.60;99.90;;;;;;4974123;28;20473;-82
2022/04/12 03:28:20;;;;;;;4.87;3.00;;;11.60;99.90;;;;;;4973776;28;20177;-83
2022/04/12 03:30:48;;;;;;;3.40;2.23;;;11.60;99.90;;;;;;4972992;28;20463;-83
2022/04/12 03:33:25;;;;;;;5.00;2.10;;;11.60;99.90;;;;;;4972922;28;20552;-82
2022/04/12 03:35:53;;;;;;;4.80;2.97;;;11.60;99.90;;;;;;4974217;28;20464;-82
2022/04/12 03:38:54;;;;;;;5.67;3.50;;;11.60;99.90;;;;;;4972732;28;20422;-82
2022/04/12 03:41:30;;;;;;;4.70;2.90;;;11.60;99.90;;;;;;4974115;28;20395;-83
2022/04/12 03:44:07;;;;;;;4.90;2.63;;;11.60;99.90;;;;;;4973911;28;20816;-82
2022/04/12 03:46:40;;;;;;;5.77;2.60;;;11.60;99.90;;;;;;4973755;28;20404;-83
2022/04/12 03:49:10;;;;;;;7.90;2.60;;;11.50;99.90;;;;;;4973670;28;20398;-82
2022/04/12 03:51:38;;;;;;;5.90;2.93;;;11.50;99.90;;;;;;4972941;28;20799;-82
2022/04/12 03:54:06;;;;;;;4.13;2.40;;;11.40;99.90;;;;;;4972575;28;20559;-82
2022/04/12 03:56:35;;;;;;;4.53;3.00;;;11.40;99.90;;;;;;4973318;28;20450;-82
2022/04/12 03:59:04;;;;;;;4.73;2.87;;;11.40;99.90;;;;;;4973580;28;20418;-83
2022/04/12 04:01:55;;;;;;;6.20;2.97;;;11.30;99.90;;;;;;4972394;28;20422;-82
2022/04/12 04:05:03;;;;;;;4.70;2.60;;;11.30;99.90;;;;;;4972319;28;20429;-82
2022/04/12 04:07:44;;;;;;;4.80;3.07;;;11.30;99.90;;;;;;4973296;28;20433;-82
2022/04/12 04:10:13;;;;;;;6.57;2.77;;;11.20;99.90;;;;;;4972476;28;20576;-83
2022/04/12 04:13:08;;;;;;;3.53;2.47;;;11.20;99.90;;;;;;4972679;28;20429;-82
2022/04/12 04:15:46;;;;;;;4.03;2.60;;;11.20;99.90;;;;;;4972949;28;20484;-82
2022/04/12 04:18:16;;;;;;;4.73;3.20;;;11.10;99.90;;;;;;4973351;28;20422;-83
2022/04/12 04:21:00;;;;;;;6.53;2.77;;;11.10;99.90;;;;;;4973491;28;20454;-83
2022/04/12 04:23:25;;;;;;;4.80;2.53;;;11.00;99.90;;;;;;4973520;28;20428;-82
2022/04/12 04:26:28;;;;;;;4.20;2.90;;;11.00;99.90;;;;;;4973635;28;20420;-82
2022/04/12 04:29:02;;;;;;;5.93;2.90;;;10.90;99.90;;;;;;4963864;28;20193;-82
2022/04/12 04:31:42;;;;;;;6.30;3.20;;;10.90;99.90;;;;;;4973391;28;20414;-82
2022/04/12 04:34:21;;;;;;;6.40;3.10;;;10.90;99.90;;;;;;4973184;28;20468;-82
2022/04/12 04:37:07;;;;;;;4.97;2.77;;;10.90;99.90;;;;;;4972752;28;20440;-83
2022/04/12 04:39:50;;;;;;;4.17;2.20;;;10.80;99.90;;;;;;4972245;28;20582;-82
2022/04/12 04:42:28;;;;;;;4.13;2.50;;;10.80;99.90;;;;;;4973352;28;20397;-82
2022/04/12 04:45:06;;;;;;;3.70;2.40;;;10.90;99.90;;;;;;4973564;28;20441;-82
2022/04/12 04:47:37;;;;;;;5.13;2.73;;;10.90;99.90;;;;;;4973713;28;20430;-83
2022/04/12 04:50:37;;;;;;;4.50;2.53;;;10.90;99.90;;;;;;4971943;28;20492;-83
2022/04/12 04:53:07;;;;;;;4.60;2.80;;;10.90;99.90;;;;;;4973115;28;20461;-83
2022/04/12 04:55:43;;;;;;;4.33;2.07;;;10.90;99.90;;;;;;4973922;28;20501;-83
2022/04/12 04:58:19;;;;;;;3.53;2.20;;;10.90;99.90;;;;;;4972799;28;20401;-82
2022/04/12 05:00:44;;;;;;;5.27;2.83;;;10.90;99.90;;;;;;4973217;28;20422;-82
2022/04/12 05:03:21;;;;;;;4.17;2.70;;;10.90;99.90;;;;;;4973259;28;20421;-82
2022/04/12 05:06:05;;;;;;;6.63;3.13;;;10.90;99.90;;;;;;4971632;28;20197;-82
2022/04/12 05:08:46;;;;;;;4.87;2.67;;;10.90;99.90;;;;;;4972693;28;20424;-82
2022/04/12 05:11:31;;;;;;;5.90;2.87;;;10.80;99.90;;;;;;4972715;28;20445;-82
2022/04/12 05:13:59;;;;;;;4.90;2.70;;;10.90;99.90;;;;;;4972955;28;20829;-83
2022/04/12 05:16:25;;;;;;;4.40;2.20;;;10.80;99.90;;;;;;4972711;28;20418;-82
2022/04/12 05:18:53;;;;;;;5.20;2.70;;;10.80;99.90;;;;;;4972765;28;20504;-82
2022/04/12 05:21:38;;;;;;;5.63;2.80;;;10.80;99.90;;;;;;4972739;28;20277;-82
2022/04/12 05:24:05;;;;;;;7.07;2.83;;;10.80;99.90;;;;;;4971733;28;20921;-82
2022/04/12 05:26:33;;;;;;;7.37;3.03;;;10.80;99.90;;;;;;4972106;28;20417;-82
2022/04/12 05:29:05;;;;;;;5.37;3.30;;;10.80;99.90;;;;;;4975867;28;20457;-82
2022/04/12 05:31:30;;;;;;;6.90;3.43;;;10.90;99.90;;;;;;4976212;28;20862;-82
2022/04/12 05:34:19;;;;;;;4.30;2.57;;;10.90;99.90;;;;;;4976317;28;20556;-82
2022/04/12 05:36:47;;;;;;;3.43;2.00;;;10.90;99.90;;;;;;4974944;28;20653;-82
2022/04/12 05:39:20;;;;;;;4.60;2.63;;;10.90;99.90;;;;;;4976168;28;20499;-82
2022/04/12 05:41:49;;;;;;;6.93;3.43;;;10.90;99.90;;;;;;4975677;28;20924;-82
2022/04/12 05:44:14;;;;;;;3.97;2.20;;;10.90;99.90;;;;;;4974817;28;20465;-82
2022/04/12 05:46:48;;;;;;;4.80;2.83;;;10.90;99.90;;;;;;4975265;28;20843;-83
2022/04/12 05:49:13;;;;;;;5.63;2.77;;;10.90;99.90;;;;;;4976077;28;20209;-82
2022/04/12 05:51:58;;;;;;;6.23;3.53;;;11.00;99.90;;;;;;4975827;28;20443;-82
2022/04/12 05:54:24;;;;;;;5.43;2.73;;;11.00;99.90;;;;;;4974627;28;20204;-82
2022/04/12 05:57:23;;;;;;;5.33;2.93;;;11.10;99.90;;;;;;4975317;28;20425;-82
2022/04/12 05:59:51;;;;;;;3.87;2.57;;;11.10;99.90;;;;;;4969488;28;20840;-82
2022/04/12 06:02:35;;;;;;;5.13;3.10;;;11.20;99.90;;;;;;4975724;28;20832;-81
2022/04/12 06:05:04;;;;;;;4.43;3.13;;;11.30;99.90;;;;;;4974509;28;20458;-82
2022/04/12 06:07:45;;;;;;;4.97;2.73;;;11.30;99.90;;;;;;4975272;28;20913;-82
2022/04/12 06:10:18;;;;;;;4.57;2.70;;;11.40;99.90;;;;;;4974348;28;20464;-82
2022/04/12 06:12:44;;;;;;;4.33;2.47;;;11.50;99.90;;;;;;4974388;28;20852;-82
2022/04/12 06:15:20;;;;;;;5.27;2.90;;;11.50;99.90;;;;;;4975303;28;20465;-82
2022/04/12 06:17:53;;;;;;;4.73;2.80;;;11.60;99.90;;;;;;4975208;28;20413;-82
2022/04/12 06:20:20;;;;;;;6.20;2.77;;;11.70;99.90;;;;;;4973995;28;20938;-82
2022/04/12 06:22:49;;;;;;;4.13;2.43;;;11.80;99.90;;;;;;4975534;28;20449;-82
2022/04/12 06:25:44;;;;;;;4.80;2.80;;;11.90;99.90;;;;;;4975256;28;20760;-83
2022/04/12 06:28:12;;;;;;;5.53;3.20;;;12.00;99.90;;;;;;4975807;28;20425;-82
2022/04/12 06:30:37;;;;;;;5.87;2.83;;;12.20;99.90;;;;;;4975072;28;20437;-82
2022/04/12 06:33:15;;;;;;;4.77;2.87;;;12.30;99.90;;;;;;4975205;28;20430;-82
2022/04/12 06:35:43;;;;;;;4.10;2.83;;;12.40;99.90;;;;;;4973750;28;20205;-82
2022/04/12 06:38:10;;;;;;;5.33;2.83;;;12.50;99.90;;;;;;4973123;28;20422;-82
2022/04/12 06:40:44;;;;;;;4.77;3.10;;;12.60;99.90;;;;;;4974946;28;20988;-82
2022/04/12 06:43:10;;;;;;;5.37;2.90;;;12.60;99.90;;;;;;4974037;28;21004;-83
2022/04/12 06:45:36;;;;;;;4.50;3.07;;;12.70;99.90;;;;;;4974890;28;20952;-82
2022/04/12 06:48:02;;;;;;;7.07;3.00;;;12.70;99.90;;;;;;4974471;28;20426;-83
2022/04/12 06:50:30;;;;;;;5.67;2.87;;;12.80;99.90;;;;;;4973647;28;20265;-82
2022/04/12 06:52:57;;;;;;;4.27;2.63;;;12.80;99.90;;;;;;4974793;28;20264;-82
2022/04/12 06:55:34;;;;;;;4.80;2.97;;;12.80;99.90;;;;;;4974693;28;20414;-83
2022/04/12 06:58:23;;;;;;;3.93;2.43;;;12.80;99.90;;;;;;4972947;28;20430;-83
2022/04/12 07:00:48;;;;;;;4.40;2.63;;;12.90;99.90;;;;;;4973422;28;20846;-82
2022/04/12 07:03:28;;;;;;;7.40;3.07;;;12.90;99.90;;;;;;4974585;28;20422;-83
2022/04/12 07:05:56;;;;;;;4.70;3.07;;;12.80;99.90;;;;;;4974529;28;20246;-83
2022/04/12 07:08:23;;;;;;;4.27;2.70;;;12.70;99.90;;;;;;4973947;28;20425;-83
2022/04/12 07:10:49;;;;;;;4.27;2.60;;;12.70;99.90;;;;;;4974245;28;20489;-83
2022/04/12 07:13:20;;;;;;;4.00;2.57;;;12.70;99.90;;;;;;4974279;28;20879;-83
2022/04/12 07:15:46;;;;;;;5.20;2.90;;;12.80;99.90;;;;;;4972981;28;20225;-82
2022/04/12 07:18:12;;;;;;;4.57;2.60;;;12.90;99.90;;;;;;4972317;28;20410;-83
2022/04/12 07:20:37;;;;;;;4.37;2.97;;;13.00;99.90;;;;;;4974222;28;20945;-83
2022/04/12 07:23:03;;;;;;;5.93;3.40;;;13.00;99.90;;;;;;4974120;28;20438;-83
2022/04/12 07:25:29;;;;;;;5.07;2.50;;;13.10;99.90;;;;;;4974024;28;20184;-82
2022/04/12 07:27:54;;;;;;;4.90;2.70;;;13.20;99.90;;;;;;4973717;28;20171;-83
2022/04/12 07:30:20;;;;;;;4.23;2.70;;;13.30;99.90;;;;;;4974007;28;20202;-83
2022/04/12 07:32:46;;;;;;;4.43;2.60;;;13.30;99.90;;;;;;4974110;28;20209;-83
2022/04/12 07:35:11;;;;;;;4.20;2.67;;;13.30;99.90;;;;;;4973851;28;20206;-83
2022/04/12 07:37:37;;;;;;;7.57;2.93;;;13.40;99.90;;;;;;4973458;28;20217;-83
2022/04/12 07:40:06;;;;;;;4.30;2.70;;;13.50;99.90;;;;;;4973758;28;20713;-82
2022/04/12 07:42:31;;;;;;;4.97;2.90;;;13.60;99.90;;;;;;4972621;28;20186;-83
2022/04/12 07:44:57;;;;;;;5.27;2.97;;;13.70;99.90;;;;;;4973705;28;20426;-83
2022/04/12 07:47:25;;;;;;;5.60;2.70;;;13.80;99.90;;;;;;4971928;28;20666;-83
2022/04/12 07:49:50;;;;;;;3.17;2.40;;;13.90;99.90;;;;;;4972865;28;20205;-82
2022/04/12 07:52:18;;;;;;;5.23;2.90;;;14.00;99.90;;;;;;4972369;28;21051;-83
2022/04/12 07:54:44;;;;;;;6.00;2.93;;;14.10;99.90;;;;;;4973572;28;20285;-83
2022/04/12 07:57:15;;;;;;;4.10;2.93;;;14.30;99.90;;;;;;4973017;28;20978;-83
2022/04/12 07:59:41;;;;;;;5.30;3.10;;;14.40;99.90;;;;;;4973539;28;20190;-83
2022/04/12 08:02:06;;;;;;;4.93;2.47;;;14.60;99.90;;;;;;4972319;28;20509;-83
2022/04/12 08:04:32;;;;;;;4.10;2.70;;;14.70;99.90;;;;;;4973661;28;20188;-83
2022/04/12 08:06:59;;;;;;;5.80;3.33;;;14.80;99.90;;;;;;4972833;28;20178;-83
2022/04/12 08:09:24;;;;;;;4.43;2.40;;;14.80;99.90;;;;;;4972457;28;20213;-83
2022/04/12 08:11:50;;;;;;;4.63;2.73;;;14.90;99.90;;;;;;4973373;28;20421;-83
2022/04/12 08:14:15;;;;;;;4.43;2.70;;;15.00;99.90;;;;;;4972057;28;20214;-83
2022/04/12 08:16:41;;;;;;;5.20;3.23;;;15.10;99.90;;;;;;4972605;28;20553;-83
2022/04/12 08:19:07;;;;;;;5.30;2.70;;;15.20;99.90;;;;;;4972512;28;20182;-82
2022/04/12 08:21:34;;;;;;;5.43;3.20;;;15.30;99.90;;;;;;4972055;28;20198;-82
2022/04/12 08:24:00;;;;;;;4.30;2.63;;;15.50;99.90;;;;;;4971974;28;20182;-82
2022/04/12 08:26:25;;;;;;;7.90;3.07;;;15.70;99.90;;;;;;4971614;28;20426;-81
2022/04/12 08:28:51;;;;;;;4.63;2.77;;;16.00;99.90;;;;;;4971415;28;20680;-83
2022/04/12 08:31:17;;;;;;;5.27;3.00;;;16.20;99.90;;;;;;4971022;28;20571;-83
2022/04/12 08:33:42;;;;;;;6.70;2.73;;;16.40;99.90;;;;;;4972960;28;20678;-82
2022/04/12 08:36:08;;;;;;;5.77;2.30;;;16.60;99.90;;;;;;4973091;28;20175;-83
2022/04/12 08:38:33;;;;;;;5.50;2.47;;;16.70;99.90;;;;;;4971321;28;20642;-83
2022/04/12 08:41:01;;;;;;;4.40;2.60;;;16.90;99.10;;;;;;4972811;28;20249;-84
2022/04/12 08:43:29;;;;;;;3.60;2.27;;;17.10;99.20;;;;;;4963944;28;20206;-83
2022/04/12 08:45:55;;;;;;;3.93;2.50;;;17.20;95.80;;;;;;4953529;28;20410;-83
2022/04/12 08:48:20;;;;;;;4.60;2.93;;;17.50;95.50;;;;;;4953215;28;20430;-83
2022/04/12 08:50:47;;;;;;;4.93;2.80;;;17.90;93.50;;;;;;4972942;28;20493;-83
2022/04/12 08:53:15;;;;;;;6.77;2.43;;;18.70;91.80;;;;;;4972993;28;20210;-83
2022/04/12 08:55:41;;;;;;;3.90;2.30;;;19.70;86.60;;;;;;4972653;28;20415;-83
2022/04/12 08:58:07;;;;;;;8.33;2.80;;;20.70;79.60;;;;;;4971787;28;20472;-84
2022/04/12 09:00:32;;;;;;;4.93;2.40;;;21.90;73.60;;;;;;4972802;28;20612;-83
2022/04/12 09:02:59;;;;;;;3.77;2.43;;;22.80;65.00;;;;;;4976084;28;20594;-84
2022/04/12 09:05:25;;;;;;;3.60;2.53;;;23.80;59.00;;;;;;4975233;28;20205;-83
2022/04/12 09:07:51;;;;;;;4.00;2.47;;;25.00;55.50;;;;;;4975981;28;20487;-85
2022/04/12 09:10:19;;;;;;;3.60;2.23;;;26.00;52.70;;;;;;4976260;28;20442;-84
2022/04/12 09:12:45;;;;;;;4.67;2.53;;;27.20;48.80;;;;;;4976211;28;20170;-85
2022/04/12 09:15:14;;;;;;;3.80;2.30;;;28.10;45.80;;;;;;4976047;28;20556;-85
2022/04/12 09:17:44;;;;;;;3.60;2.40;;;28.90;43.60;;;;;;4975694;28;20417;-84
2022/04/12 09:20:19;;;;;;;4.40;2.60;;;29.10;41.00;;;;;;4975645;28;20453;-84
2022/04/12 09:22:45;;;;;;;3.20;1.90;;;29.20;40.00;;;;;;4976178;28;20782;-85
2022/04/12 09:25:13;;;;;;;4.83;2.53;;;29.30;39.90;;;;;;4975869;28;21167;-85
2022/04/12 09:27:39;;;;;;;4.43;2.50;;;30.00;38.50;;;;;;4974212;28;20453;-85
2022/04/12 09:30:08;;;;;;;3.87;2.07;;;30.70;38.40;;;;;;4975587;28;21003;-86
2022/04/12 09:32:38;;;;;;;4.43;2.30;;;30.30;36.70;;;;;;4975963;28;20428;-85
2022/04/12 09:35:04;;;;;;;5.00;2.70;;;30.10;36.00;;;;;;4975667;28;20457;-85
2022/04/12 09:37:33;;;;;;;4.20;2.00;;;29.60;37.00;;;;;;4975274;28;20472;-85
2022/04/12 09:39:59;;;;;;;5.03;3.00;;;31.00;36.50;;;;;;4975753;28;21136;-86
2022/04/12 09:42:51;;;;;;;4.33;2.70;;;30.90;36.30;;;;;;4975905;28;20410;-85
2022/04/12 09:45:24;;;;;;;4.40;2.20;;;31.30;35.30;;;;;;4973820;28;20201;-85
2022/04/12 09:47:52;;;;;;;4.23;2.77;;;31.80;34.90;;;;;;4975294;28;20814;-83
2022/04/12 09:50:21;;;;;;;2.93;2.20;;;32.40;34.20;;;;;;4977515;28;20446;-84
2022/04/12 09:52:56;;;;;;;3.43;2.03;;;32.90;32.20;;;;;;4993427;28;20480;-84
2022/04/12 09:55:52;;;;;;;4.67;2.50;;;33.20;32.00;;;;;;4992174;28;20874;-84
2022/04/12 09:58:21;;;;;;;3.43;2.20;;;33.40;32.80;;;;;;4978056;28;20425;-85
2022/04/12 10:00:47;;;;;;;3.40;2.43;;;33.90;30.20;;;;;;4979781;28;20428;-85
2022/04/12 10:03:15;;;;;;;4.73;1.93;;;34.40;30.50;;;;;;4978569;28;20434;-84
2022/04/12 10:05:44;;;;;;;3.63;2.17;;;35.10;29.90;;;;;;4977957;28;20669;-84
2022/04/12 10:08:10;;;;;;;3.13;1.83;;;35.20;29.40;;;;;;4978693;28;20409;-84
2022/04/12 10:10:36;;;;;;;5.03;2.00;;;35.60;28.40;;;;;;4979761;28;20422;-84
2022/04/12 10:13:02;;;;;;;4.60;2.50;;;35.40;28.50;;;;;;4978294;28;20406;-84
2022/04/12 10:15:29;;;;;;;4.07;2.70;;;35.40;28.30;;;;;;4979684;28;20422;-84
2022/04/12 10:17:55;;;;;;;3.80;2.10;;;35.10;28.50;;;;;;4991633;28;20178;-84
2022/04/12 10:20:21;;;;;;;3.60;2.23;;;35.20;28.50;;;;;;4975526;28;21015;-83
2022/04/12 10:22:48;;;;;;;5.00;3.00;;;36.00;29.00;;;;;;4975921;28;20422;-83
2022/04/12 10:25:22;;;;;;;4.40;2.03;;;36.70;28.00;;;;;;4975751;28;20414;-83
2022/04/12 10:27:51;;;;;;;3.77;2.07;;;36.10;27.10;;;;;;4975216;28;20444;-83
2022/04/12 10:30:17;;;;;;;4.13;2.10;;;35.60;27.20;;;;;;4975700;28;20437;-83
2022/04/12 10:33:16;;;;;;;3.13;1.77;;;35.20;27.40;;;;;;4992106;28;20871;-84
2022/04/12 10:35:45;;;;;;;3.57;2.27;;;35.40;28.30;;;;;;4976295;28;20442;-83
2022/04/12 10:38:12;;;;;;;3.30;2.17;;;36.30;28.10;;;;;;4975098;28;20410;-83
2022/04/12 10:40:46;;;;;;;3.30;1.90;;;36.40;27.60;;;;;;4975119;28;20960;-83
2022/04/12 10:43:30;;;;;;;3.50;2.27;;;36.50;28.10;;;;;;4975535;28;20404;-83
2022/04/12 10:45:57;;;;;;;3.00;1.90;;;36.70;27.30;;;;;;4976963;28;20405;-84
2022/04/12 10:48:24;;;;;;;3.70;1.80;;;36.80;26.70;;;;;;4976002;28;20410;-83
2022/04/12 10:50:52;;;;;;;2.60;1.60;;;36.80;27.40;;;;;;4990510;28;20448;-82
2022/04/12 10:53:36;;;;;;;3.93;2.63;;;36.80;27.40;;;;;;4975466;28;20460;-83
2022/04/12 10:56:09;;;;;;;2.80;1.50;;;37.10;27.10;;;;;;4975581;28;20784;-83
2022/04/12 10:58:35;;;;;;;3.57;1.60;;;37.60;27.20;;;;;;4975479;28;20422;-83
2022/04/12 11:01:01;;;;;;;2.80;1.50;;;38.70;27.30;;;;;;4976029;28;20446;-83
2022/04/12 11:03:43;;;;;;;2.50;1.70;;;38.50;26.50;;;;;;4975996;28;20433;-82
2022/04/12 11:06:20;;;;;;;2.83;1.70;;;37.60;25.70;;;;;;4975611;28;20442;-82
2022/04/12 11:08:51;;;;;;;2.30;1.40;;;37.00;25.70;;;;;;4973839;28;20432;-83
2022/04/12 11:11:43;;;;;;;2.70;1.57;;;36.50;26.20;;;;;;4974802;28;20429;-83
2022/04/12 11:14:32;;;;;;;2.70;1.50;;;36.40;26.50;;;;;;4991832;28;20872;-84
2022/04/12 11:17:02;;;;;;;2.60;1.57;;;35.10;27.40;;;;;;4987811;28;20425;-84
2022/04/12 11:19:39;;;;;;;3.00;1.20;;;34.60;27.00;;;;;;4990247;28;20453;-84
2022/04/12 11:22:09;;;;;;;2.40;1.50;;;34.70;27.60;;;;;;4986360;28;20402;-84
2022/04/12 11:24:36;;;;;;;2.30;1.23;;;34.10;27.70;;;;;;4985764;28;20418;-84
2022/04/12 11:27:04;;;;;;;2.30;1.33;;;33.60;28.20;;;;;;5001749;28;21021;-84
2022/04/12 11:29:30;;;;;;;2.30;1.37;;;33.60;28.30;;;;;;4987171;28;20446;-84
2022/04/12 11:31:56;;;;;;;2.77;1.40;;;34.40;27.50;;;;;;4986295;28;20417;-84
2022/04/12 11:34:24;;;;;;;2.63;1.53;;;34.80;28.40;;;;;;4988005;28;20457;-84
2022/04/12 11:36:58;;;;;;;3.63;1.37;;;35.20;27.30;;;;;;4987501;28;20436;-83
2022/04/12 11:39:31;;;;;;;2.70;1.37;;;34.20;27.10;;;;;;4986567;28;20444;-84
2022/04/12 11:42:02;;;;;;;2.77;1.10;;;;;;;;;;5000702;28;20496;-84
2022/04/12 11:44:28;;;;;;;2.67;1.50;;;;;;;;;;4983466;28;20422;-83
2022/04/12 11:46:59;;;;;;;3.73;1.80;;;;;;;;;;4999701;28;20771;-83
2022/04/12 11:49:29;;;;;;;2.80;1.63;;;;;;;;;;4986152;28;20446;-83
2022/04/12 11:51:55;;;;;;;2.67;1.47;;;;;;;;;;4987929;28;20417;-83
2022/04/12 11:54:29;;;;;;;2.80;1.50;;;;;;;;;;4983577;28;20461;-84
2022/04/12 11:57:04;;;;;;;2.37;1.27;;;;;;;;;;4998662;28;20426;-84
2022/04/12 11:59:36;;;;;;;2.47;1.20;;;36.50;26.70;;;;;;4984314;28;20440;-84
2022/04/12 12:02:04;;;;;;;2.33;1.30;;;36.90;26.40;;;;;;4985530;28;20425;-85
2022/04/12 12:04:34;;;;;;;2.30;1.27;;;36.80;25.90;;;;;;4987268;28;20414;-84
2022/04/12 12:07:07;;;;;;;2.93;1.50;;;36.10;26.10;;;;;;4987346;28;20452;-84
2022/04/12 12:09:34;;;;;;;3.23;1.43;;;35.70;26.70;;;;;;4975263;28;20940;-84
2022/04/12 12:12:09;;;;;;;2.77;1.30;;;35.20;26.30;;;;;;4990080;28;21057;-84
2022/04/12 12:14:36;;;;;;;2.80;1.30;;;34.40;27.00;;;;;;4973268;28;20542;-84
2022/04/12 12:17:18;;;;;;;2.53;1.63;;;34.10;26.70;;;;;;4970931;28;20421;-84
2022/04/12 12:19:45;;;;;;;2.63;1.37;;;35.00;28.30;;;;;;4972991;28;20858;-84
2022/04/12 12:22:12;;;;;;;2.30;1.23;;;34.90;27.20;;;;;;4973023;28;20401;-84
2022/04/12 12:25:04;;;;;;;2.50;1.20;;;34.00;27.40;;;;;;4973301;28;20921;-85
2022/04/12 12:27:33;;;;;;;3.40;1.77;;;32.70;28.40;;;;;;4971533;28;20426;-84
2022/04/12 12:30:10;;;;;;;2.93;1.53;;;31.60;28.70;;;;;;4973240;28;20433;-84
2022/04/12 12:32:38;;;;;;;3.13;1.70;;;30.90;29.10;;;;;;4973074;28;20456;-84
2022/04/12 12:35:09;;;;;;;2.50;1.33;;;30.00;29.50;;;;;;4973879;28;20461;-84
2022/04/12 12:37:36;;;;;;;3.10;1.47;;;29.30;30.60;;;;;;4976762;28;20424;-83
2022/04/12 12:40:04;;;;;;;3.07;1.50;;;29.00;31.40;;;;;;4977591;28;20433;-83
2022/04/12 12:42:39;;;;;;;3.80;1.63;;;29.00;31.20;;;;;;4977102;28;20437;-84
2022/04/12 12:45:12;;;;;;;3.50;1.50;;;28.80;31.20;;;;;;4976798;28;20434;-84
2022/04/12 12:47:43;;;;;;;2.57;1.60;;;28.50;32.20;;;;;;4977305;28;21017;-83
2022/04/12 12:50:11;;;;;;;2.53;1.37;;;28.10;32.50;;;;;;4977772;28;20437;-83
2022/04/12 12:52:37;;;;;;;2.93;1.60;;;27.90;33.80;;;;;;4979146;28;20460;-82
2022/04/12 12:55:13;;;;;;;3.17;1.47;;;27.80;33.30;;;;;;4975268;28;20469;-82
2022/04/12 12:57:42;;;;;;;2.60;1.40;;;28.40;34.10;;;;;;4976418;28;20418;-82
2022/04/12 13:00:10;;;;;;;4.83;1.83;;;29.10;33.60;;;;;;4976470;28;20445;-82
2022/04/12 13:02:37;;;;;;;2.30;1.40;;;29.60;32.50;;;;;;4976789;28;20944;-82
2022/04/12 13:05:05;;;;;;;2.30;1.37;;;30.00;32.00;;;;;;4976607;28;20918;-82
2022/04/12 13:07:36;;;;;;;3.37;1.80;;;30.60;32.10;;;;;;4976458;28;20976;-82